createdAt,value
2023-03-06T00:02:16.513Z,3.33
2023-03-06T00:05:19.173Z,3.44
2023-03-06T00:08:21.676Z,3.44
2023-03-06T00:11:24.481Z,3.24
2023-03-06T00:14:27.115Z,3.13
2023-03-06T00:17:29.875Z,3.37
2023-03-06T00:20:33.166Z,3.45
2023-03-06T00:23:36.377Z,3.38
2023-03-06T00:26:39.497Z,3.34
2023-03-06T00:29:42.317Z,3.62
2023-03-06T00:32:44.849Z,3.47
2023-03-06T00:35:47.729Z,3.57
2023-03-06T00:38:50.238Z,3.80
2023-03-06T00:41:53.323Z,3.64
2023-03-06T00:44:55.763Z,3.97
2023-03-06T00:47:58.580Z,3.81
2023-03-06T00:51:01.278Z,3.72
2023-03-06T00:54:03.844Z,3.33
2023-03-06T00:57:06.111Z,3.24
2023-03-06T01:00:12.314Z,3.44
2023-03-06T01:03:14.897Z,3.36
2023-03-06T01:06:17.640Z,3.55
2023-03-06T01:09:20.020Z,3.62
2023-03-06T01:12:23.585Z,3.80
2023-03-06T01:15:26.333Z,3.52
2023-03-06T01:18:29.208Z,3.48
2023-03-06T01:21:32.293Z,3.41
2023-03-06T01:24:34.880Z,3.25
2023-03-06T01:27:37.120Z,3.13
2023-03-06T01:30:40.185Z,3.17
2023-03-06T01:33:42.446Z,3.22
2023-03-06T01:36:44.956Z,3.38
2023-03-06T01:39:47.491Z,3.50
2023-03-06T01:42:50.939Z,3.44
2023-03-06T01:46:30.854Z,3.50
2023-03-06T01:49:33.561Z,3.50
2023-03-06T01:52:43.613Z,3.51
2023-03-06T01:55:46.651Z,3.44
2023-03-06T01:58:49.717Z,3.32
2023-03-06T02:01:54.114Z,3.39
2023-03-06T02:04:57.556Z,3.41
2023-03-06T02:08:02.584Z,3.38
2023-03-06T02:11:08.147Z,3.33
2023-03-06T02:14:16.207Z,3.33
2023-03-06T02:17:21.104Z,3.32
2023-03-06T02:20:37.397Z,3.38
2023-03-06T02:23:56.057Z,3.54
2023-03-06T02:27:00.923Z,3.54
2023-03-06T02:30:09.508Z,3.52
2023-03-06T02:33:15.200Z,3.55
2023-03-06T02:36:18.067Z,3.38
2023-03-06T02:39:25.213Z,3.50
2023-03-06T02:42:29.143Z,3.51
2023-03-06T02:45:38.142Z,3.53
2023-03-06T02:48:41.513Z,3.42
2023-03-06T02:51:44.619Z,3.33
2023-03-06T02:54:47.586Z,3.53
2023-03-06T02:57:50.871Z,3.44
2023-03-06T03:00:54.645Z,3.33
2023-03-06T03:03:57.059Z,3.44
2023-03-06T03:07:00.245Z,3.54
2023-03-06T03:10:04.247Z,3.50
2023-03-06T03:13:07.714Z,3.45
2023-03-06T03:16:15.481Z,3.70
2023-03-06T03:19:19.634Z,3.73
2023-03-06T03:22:22.138Z,3.80
2023-03-06T03:25:26.226Z,3.80
2023-03-06T03:28:30.253Z,3.76
2023-03-06T03:31:33.181Z,3.82
2023-03-06T03:34:36.748Z,3.76
2023-03-06T03:37:39.847Z,3.90
2023-03-06T03:40:42.214Z,3.83
2023-03-06T03:43:45.492Z,3.87
2023-03-06T03:46:47.663Z,3.87
2023-03-06T03:49:51.121Z,3.98
2023-03-06T03:52:54.704Z,3.87
2023-03-06T03:55:57.751Z,3.96
2023-03-06T03:59:00.380Z,4.04
2023-03-06T04:02:04.891Z,4.01
2023-03-06T04:05:11.038Z,3.96
2023-03-06T04:08:13.855Z,3.94
2023-03-06T04:11:17.004Z,4.01
2023-03-06T04:14:19.794Z,3.98
2023-03-06T04:17:22.592Z,3.96
2023-03-06T04:20:26.113Z,3.92
2023-03-06T04:23:28.716Z,3.86
2023-03-06T04:26:30.971Z,3.85
2023-03-06T04:29:34.365Z,3.78
2023-03-06T04:32:37.495Z,3.79
2023-03-06T04:35:40.843Z,3.86
2023-03-06T04:38:44.441Z,3.87
2023-03-06T04:41:47.554Z,4.05
2023-03-06T04:44:50.041Z,3.94
2023-03-06T04:47:53.077Z,3.95
2023-03-06T04:50:55.216Z,3.84
2023-03-06T04:53:58.145Z,3.83
2023-03-06T04:57:00.618Z,3.97
2023-03-06T05:00:08.859Z,4.06
2023-03-06T05:03:12.555Z,4.00
2023-03-06T05:06:16.137Z,3.96
2023-03-06T05:09:18.305Z,3.98
2023-03-06T05:12:20.896Z,3.93
2023-03-06T05:15:23.337Z,3.81
2023-03-06T05:18:25.779Z,3.87
2023-03-06T05:21:28.015Z,3.91
2023-03-06T05:24:30.677Z,3.79
2023-03-06T05:27:33.080Z,3.90
2023-03-06T05:30:35.900Z,3.94
2023-03-06T05:33:38.082Z,3.91
2023-03-06T05:36:40.695Z,3.81
2023-03-06T05:39:42.908Z,3.74
2023-03-06T05:42:45.809Z,3.84
2023-03-06T05:45:50.325Z,3.98
2023-03-06T05:48:57.741Z,3.96
2023-03-06T05:52:00.965Z,4.00
2023-03-06T05:55:07.541Z,4.04
2023-03-06T05:58:09.826Z,4.02
2023-03-06T06:01:18.834Z,4.21
2023-03-06T06:04:22.647Z,4.27
2023-03-06T06:07:24.888Z,4.20
2023-03-06T06:10:27.383Z,4.09
2023-03-06T06:13:29.746Z,3.85
2023-03-06T06:16:32.237Z,4.18
2023-03-06T06:19:34.612Z,4.28
2023-03-06T06:22:40.405Z,4.40
2023-03-06T06:25:42.720Z,4.34
2023-03-06T06:28:45.664Z,4.39
2023-03-06T06:31:48.520Z,4.13
2023-03-06T06:34:51.193Z,4.30
2023-03-06T06:37:53.473Z,4.46
2023-03-06T06:41:27.190Z,4.40
2023-03-06T06:44:19.703Z,4.44
2023-03-06T06:47:24.827Z,4.69
2023-03-06T06:50:27.708Z,4.78
2023-03-06T06:53:30.649Z,4.81
2023-03-06T06:56:32.864Z,4.72
2023-03-06T06:59:35.424Z,4.66
2023-03-06T07:02:37.748Z,4.75
2023-03-06T07:05:40.518Z,4.94
2023-03-06T07:08:43.074Z,5.00
2023-03-06T07:11:48.435Z,4.81
2023-03-06T07:14:50.800Z,5.14
2023-03-06T07:17:53.582Z,5.10
2023-03-06T07:20:56.854Z,5.02
2023-03-06T07:24:00.714Z,5.20
2023-03-06T07:27:03.083Z,5.24
2023-03-06T07:30:07.101Z,5.22
2023-03-06T07:33:09.908Z,5.14
2023-03-06T07:36:13.897Z,5.34
2023-03-06T07:39:16.408Z,5.32
2023-03-06T07:42:19.741Z,5.31
2023-03-06T07:45:23.763Z,5.49
2023-03-06T07:48:27.476Z,5.50
2023-03-06T07:51:30.300Z,5.60
2023-03-06T07:54:41.113Z,5.71
2023-03-06T07:57:43.670Z,5.59
2023-03-06T08:00:46.797Z,5.41
2023-03-06T08:03:50.520Z,5.26
2023-03-06T08:06:57.721Z,5.28
2023-03-06T08:10:01.136Z,5.38
2023-03-06T08:13:04.684Z,5.58
2023-03-06T08:16:08.575Z,5.54
2023-03-06T08:19:11.049Z,5.80
2023-03-06T08:22:14.570Z,5.97
2023-03-06T08:25:17.362Z,5.87
2023-03-06T08:28:19.995Z,5.93
2023-03-06T08:31:32.939Z,5.67
2023-03-06T08:34:35.820Z,5.76
2023-03-06T08:37:38.397Z,6.03
2023-03-06T08:40:41.772Z,6.52
2023-03-06T08:43:44.117Z,6.48
2023-03-06T08:46:47.198Z,6.82
2023-03-06T08:49:49.528Z,6.99
2023-03-06T08:52:52.377Z,7.27
2023-03-06T08:55:55.016Z,7.56
2023-03-06T08:58:59.468Z,7.65
2023-03-06T09:02:01.941Z,7.85
2023-03-06T09:05:07.366Z,8.18
2023-03-06T09:08:09.911Z,8.15
2023-03-06T09:11:14.266Z,8.11
2023-03-06T09:14:16.543Z,8.01
2023-03-06T09:17:19.405Z,8.08
2023-03-06T09:20:22.101Z,7.83
2023-03-06T09:23:24.700Z,7.78
2023-03-06T09:26:39.754Z,7.70
2023-03-06T09:29:47.707Z,7.87
2023-03-06T09:32:50.423Z,8.26
2023-03-06T09:35:57.147Z,8.01
2023-03-06T09:38:59.498Z,8.33
2023-03-06T09:42:02.622Z,8.14
2023-03-06T09:45:05.551Z,8.05
2023-03-06T09:48:15.659Z,8.24
2023-03-06T09:51:22.686Z,8.04
2023-03-06T09:54:37.033Z,8.43
2023-03-06T09:57:52.545Z,8.48
2023-03-06T10:01:14.237Z,8.46
2023-03-06T10:04:34.727Z,8.81
2023-03-06T10:07:46.092Z,8.96
2023-03-06T10:10:58.690Z,9.15
2023-03-06T10:14:16.063Z,8.96
2023-03-06T10:17:21.850Z,8.88
2023-03-06T10:20:35.899Z,8.93
2023-03-06T10:23:53.478Z,8.49
2023-03-06T10:27:10.523Z,8.10
2023-03-06T10:30:50.476Z,7.77
2023-03-06T10:34:15.824Z,7.78
2023-03-06T10:37:21.807Z,7.59
2023-03-06T10:40:35.697Z,7.50
2023-03-06T10:43:38.509Z,7.50
2023-03-06T10:46:47.399Z,7.43
2023-03-06T10:49:59.781Z,7.53
2023-03-06T10:53:07.335Z,7.57
2023-03-06T10:56:10.072Z,7.56
2023-03-06T10:59:20.353Z,7.69
2023-03-06T11:02:32.878Z,7.91
2023-03-06T11:05:36.033Z,7.91
2023-03-06T11:08:39.798Z,8.15
2023-03-06T11:11:42.377Z,8.12
2023-03-06T11:14:45.030Z,8.22
2023-03-06T11:18:04.554Z,8.26
2023-03-06T11:21:25.840Z,8.49
2023-03-06T11:24:39.609Z,8.38
2023-03-06T11:27:44.874Z,8.31
2023-03-06T11:30:52.070Z,8.47
2023-03-06T11:34:03.296Z,8.66
2023-03-06T11:37:21.743Z,8.50
2023-03-06T11:40:56.028Z,8.67
2023-03-06T11:44:13.845Z,8.85
2023-03-06T11:47:26.174Z,8.65
2023-03-06T11:50:35.897Z,8.50
2023-03-06T11:53:40.108Z,8.35
2023-03-06T11:57:02.223Z,8.47
2023-03-06T12:00:04.926Z,8.46
2023-03-06T12:03:40.310Z,8.33
2023-03-06T12:06:57.729Z,8.14
2023-03-06T12:10:12.997Z,8.35
2023-03-06T12:13:20.613Z,8.17
2023-03-06T12:16:41.959Z,8.24
2023-03-06T12:19:44.646Z,8.46
2023-03-06T12:23:14.545Z,8.42
2023-03-06T12:26:35.233Z,8.58
2023-03-06T12:29:40.261Z,8.59
2023-03-06T12:32:57.591Z,8.83
2023-03-06T12:36:11.413Z,8.90
2023-03-06T12:39:50.398Z,8.84
2023-03-06T12:43:18.632Z,8.84
2023-03-06T12:46:26.807Z,8.76
2023-03-06T12:49:33.343Z,8.67
2023-03-06T12:52:36.336Z,8.54
2023-03-06T12:55:45.723Z,8.22
2023-03-06T12:58:53.061Z,8.11
2023-03-06T13:02:24.704Z,8.20
2023-03-06T13:05:52.873Z,8.22
2023-03-06T13:09:26.603Z,8.17
2023-03-06T13:12:49.909Z,8.14
2023-03-06T13:16:14.912Z,8.00
2023-03-06T13:19:17.837Z,8.12
2023-03-06T13:22:28.636Z,7.89
2023-03-06T13:25:32.648Z,7.97
2023-03-06T13:28:47.623Z,7.94
2023-03-06T13:31:53.557Z,7.93
2023-03-06T13:34:55.978Z,7.98
2023-03-06T13:38:00.380Z,8.03
2023-03-06T13:41:21.182Z,7.97
2023-03-06T13:44:23.978Z,7.66
2023-03-06T13:47:55.751Z,7.59
2023-03-06T13:51:14.895Z,7.46
2023-03-06T13:54:35.954Z,7.49
2023-03-06T13:57:57.625Z,7.46
2023-03-06T14:01:03.597Z,7.14
2023-03-06T14:04:31.822Z,7.16
2023-03-06T14:07:47.140Z,7.12
2023-03-06T14:11:17.405Z,7.13
2023-03-06T14:14:38.444Z,7.06
2023-03-06T14:17:53.114Z,7.01
2023-03-06T14:20:59.373Z,7.11
2023-03-06T14:24:04.320Z,6.84
2023-03-06T14:27:07.138Z,6.95
2023-03-06T14:30:16.528Z,6.85
2023-03-06T14:33:45.043Z,6.79
2023-03-06T14:36:50.475Z,6.77
2023-03-06T14:39:53.017Z,6.72
2023-03-06T14:43:20.411Z,6.64
2023-03-06T14:46:23.262Z,6.60
2023-03-06T14:49:26.781Z,6.46
2023-03-06T14:52:29.292Z,6.67
2023-03-06T14:55:34.690Z,6.77
2023-03-06T14:58:41.815Z,6.75
2023-03-06T15:01:48.315Z,6.63
2023-03-06T15:05:00.317Z,6.61
2023-03-06T15:08:07.378Z,6.50
2023-03-06T15:11:09.623Z,6.30
2023-03-06T15:14:18.929Z,6.13
2023-03-06T15:17:29.527Z,6.19
2023-03-06T15:20:45.417Z,5.99
2023-03-06T15:23:53.010Z,6.11
2023-03-06T15:27:00.434Z,6.06
2023-03-06T15:30:29.573Z,5.96
2023-03-06T15:33:32.188Z,5.92
2023-03-06T15:36:35.927Z,6.00
2023-03-06T15:39:40.759Z,6.08
2023-03-06T15:42:43.388Z,6.12
2023-03-06T15:45:46.404Z,5.94
2023-03-06T15:49:03.107Z,5.90
2023-03-06T15:52:09.483Z,5.74
2023-03-06T15:55:13.129Z,5.94
2023-03-06T15:58:20.384Z,5.94
2023-03-06T16:01:23.018Z,5.91
2023-03-06T16:04:26.714Z,5.75
2023-03-06T16:07:28.985Z,5.71
2023-03-06T16:10:35.872Z,5.68
2023-03-06T16:13:38.134Z,5.80
2023-03-06T16:16:40.623Z,5.65
2023-03-06T16:19:43.413Z,5.52
2023-03-06T16:22:47.756Z,5.42
2023-03-06T16:25:52.989Z,5.32
2023-03-06T16:28:56.216Z,5.12
2023-03-06T16:31:58.946Z,5.01
2023-03-06T16:35:01.838Z,4.84
2023-03-06T16:38:04.436Z,4.95
2023-03-06T16:41:07.830Z,4.86
2023-03-06T16:44:10.528Z,4.92
2023-03-06T16:47:13.408Z,4.93
2023-03-06T16:50:26.089Z,4.88
2023-03-06T16:53:29.128Z,4.97
2023-03-06T16:56:31.756Z,4.92
2023-03-06T16:59:34.809Z,4.90
2023-03-06T17:02:38.550Z,4.82
2023-03-06T17:05:43.771Z,4.81
2023-03-06T17:08:48.360Z,4.97
2023-03-06T17:11:51.711Z,4.93
2023-03-06T17:14:54.293Z,4.91
2023-03-06T17:17:57.934Z,4.99
2023-03-06T17:21:01.485Z,4.87
2023-03-06T17:24:04.731Z,4.94
2023-03-06T17:27:07.761Z,5.06
2023-03-06T17:30:11.777Z,5.04
2023-03-06T17:33:14.316Z,5.00
2023-03-06T17:36:17.290Z,4.93
2023-03-06T17:39:19.764Z,4.94
2023-03-06T17:42:22.658Z,4.91
2023-03-06T17:45:24.857Z,5.07
2023-03-06T17:48:27.690Z,4.87
2023-03-06T17:51:30.145Z,4.85
2023-03-06T17:54:33.850Z,4.83
2023-03-06T17:57:36.055Z,4.91
2023-03-06T18:00:39.781Z,4.99
2023-03-06T18:03:47.984Z,4.99
2023-03-06T18:06:50.217Z,4.88
2023-03-06T18:09:52.850Z,4.88
2023-03-06T18:12:56.571Z,4.88
2023-03-06T18:15:59.800Z,4.88
2023-03-06T18:19:02.438Z,4.98
2023-03-06T18:22:06.108Z,4.90
2023-03-06T18:25:09.595Z,4.92
2023-03-06T18:28:12.947Z,4.98
2023-03-06T18:31:20.488Z,5.18
2023-03-06T18:34:23.797Z,5.16
2023-03-06T18:37:26.028Z,5.30
2023-03-06T18:40:28.998Z,5.24
2023-03-06T18:43:31.500Z,5.10
2023-03-06T18:46:37.021Z,5.06
2023-03-06T18:49:40.562Z,4.97
2023-03-06T18:52:44.590Z,5.13
2023-03-06T18:55:51.920Z,5.01
2023-03-06T18:58:55.027Z,5.04
2023-03-06T19:01:58.500Z,4.90
2023-03-06T19:05:01.144Z,4.83
2023-03-06T19:08:03.490Z,4.96
2023-03-06T19:11:13.026Z,5.14
2023-03-06T19:14:16.186Z,5.03
2023-03-06T19:17:18.913Z,4.95
2023-03-06T19:20:22.605Z,5.35
2023-03-06T19:23:25.469Z,5.39
2023-03-06T19:26:28.660Z,5.14
2023-03-06T19:29:32.536Z,4.97
2023-03-06T19:32:34.793Z,5.27
2023-03-06T19:35:38.612Z,5.29
2023-03-06T19:38:41.670Z,5.28
2023-03-06T19:41:48.310Z,5.39
2023-03-06T19:44:50.530Z,5.54
2023-03-06T19:47:55.848Z,5.39
2023-03-06T19:51:03.586Z,5.32
2023-03-06T19:54:06.458Z,5.29
2023-03-06T19:57:08.604Z,5.04
2023-03-06T20:00:11.713Z,5.30
2023-03-06T20:03:14.745Z,5.28
2023-03-06T20:06:19.711Z,5.17
2023-03-06T20:09:22.320Z,5.00
2023-03-06T20:12:24.960Z,4.84
2023-03-06T20:15:28.143Z,4.70
2023-03-06T20:18:31.155Z,4.84
2023-03-06T20:21:37.447Z,4.71
2023-03-06T20:24:40.151Z,4.68
2023-03-06T20:27:42.634Z,4.63
2023-03-06T20:30:45.362Z,4.75
2023-03-06T20:33:50.901Z,4.69
2023-03-06T20:36:53.999Z,4.74
2023-03-06T20:39:56.349Z,4.81
2023-03-06T20:42:59.058Z,4.81
2023-03-06T20:46:03.084Z,4.85
2023-03-06T20:49:07.266Z,4.89
2023-03-06T20:52:09.778Z,4.84
2023-03-06T20:55:12.733Z,4.91
2023-03-06T20:58:14.941Z,5.17
2023-03-06T21:01:19.742Z,5.04
2023-03-06T21:04:22.387Z,5.20
2023-03-06T21:07:25.524Z,5.24
2023-03-06T21:10:28.095Z,4.98
2023-03-06T21:13:30.819Z,5.30
2023-03-06T21:16:33.192Z,5.22
2023-03-06T21:19:36.990Z,4.88
2023-03-06T21:22:39.282Z,4.83
2023-03-06T21:25:50.975Z,4.91
2023-03-06T21:28:56.089Z,5.02
2023-03-06T21:31:58.601Z,4.84
2023-03-06T21:35:01.220Z,4.74
2023-03-06T21:38:03.869Z,4.88
2023-03-06T21:41:12.992Z,4.96
2023-03-06T21:44:15.613Z,4.92
2023-03-06T21:47:18.654Z,4.74
2023-03-06T21:50:23.303Z,4.60
2023-03-06T21:53:25.582Z,4.54
2023-03-06T21:56:28.925Z,4.57
2023-03-06T21:59:31.217Z,4.51
2023-03-06T22:02:35.252Z,4.31
2023-03-06T22:05:38.091Z,4.38
2023-03-06T22:08:41.326Z,4.52
2023-03-06T22:11:44.160Z,4.52
2023-03-06T22:14:46.460Z,4.36
2023-03-06T22:17:49.538Z,4.35
2023-03-06T22:20:52.232Z,4.05
2023-03-06T22:23:57.663Z,3.97
2023-03-06T22:27:00.271Z,3.77
2023-03-06T22:30:03.306Z,3.65
2023-03-06T22:33:06.348Z,3.88
2023-03-06T22:36:12.252Z,4.11
2023-03-06T22:39:17.217Z,4.23
2023-03-06T22:42:20.043Z,4.21
2023-03-06T22:45:22.798Z,4.12
2023-03-06T22:48:25.654Z,4.00
2023-03-06T22:51:28.850Z,3.74
2023-03-06T22:54:31.433Z,3.61
2023-03-06T22:57:33.670Z,3.63
2023-03-06T23:00:36.546Z,3.60
2023-03-06T23:03:40.813Z,3.80
2023-03-06T23:06:44.632Z,3.76
2023-03-06T23:09:46.958Z,4.01
2023-03-06T23:13:07.886Z,3.97
2023-03-06T23:16:28.826Z,3.82
2023-03-06T23:19:49.968Z,3.61
2023-03-06T23:23:11.254Z,3.29
2023-03-06T23:26:17.725Z,3.08
2023-03-06T23:29:20.487Z,3.10
2023-03-06T23:32:23.266Z,3.22
2023-03-06T23:35:26.224Z,3.22
2023-03-06T23:38:32.296Z,3.37
2023-03-06T23:41:34.818Z,3.31
2023-03-06T23:44:37.012Z,3.23
2023-03-06T23:47:39.843Z,3.16
2023-03-06T23:50:42.146Z,3.16
2023-03-06T23:53:46.247Z,3.26
2023-03-06T23:56:48.605Z,3.30
2023-03-06T23:59:52.297Z,3.52
